Time;durP1;ratioP1;P1;durP2;ratioP2;P2;SDS_P1;SDS_P2;PMS_P1;PMS_P2;Temp;Humidity;BMP_temperature;BMP_pressure;BME280_temperature;BME280_humidity;BME280_pressure;Samples;Min_cycle;Max_cycle;Signal;HPM_P1;HPM_P2
2022/08/29 00:02:04;;;;;;;136.75;70.97;;;;;;;21.42;48.28;99357.38;4932377;29;20122;-88
2022/08/29 00:05:05;;;;;;;134.77;72.53;;;;;;;21.41;49.08;99361.34;5026294;23;20523;-90
2022/08/29 00:07:32;;;;;;;137.90;70.22;;;;;;;21.35;48.86;99355.34;4901990;29;20052;-89
2022/08/29 00:10:28;;;;;;;146.32;70.28;;;;;;;21.28;49.04;99346.91;4928271;29;20139;-92
2022/08/29 00:12:55;;;;;;;139.30;68.80;;;;;;;21.12;49.51;99327.69;4935883;29;20055;-90
2022/08/29 00:15:22;;;;;;;148.30;69.57;;;;;;;21.33;48.80;99352.13;4922222;29;20068;-91
2022/08/29 00:18:19;;;;;;;150.82;71.00;;;;;;;21.33;49.83;99352.13;4906143;29;20071;-91
2022/08/29 00:21:11;;;;;;;139.63;71.93;;;;;;;21.26;49.26;99341.75;4896131;29;20039;-90
2022/08/29 00:23:49;;;;;;;144.55;70.72;;;;;;;20.98;49.93;99302.56;4906131;29;20086;-91
2022/08/29 00:26:15;;;;;;;137.48;67.88;;;;;;;21.20;50.24;99336.94;5098885;23;20059;-89
2022/08/29 00:28:42;;;;;;;139.50;69.43;;;;;;;20.96;50.17;99302.16;4975426;28;20050;-93
2022/08/29 00:31:08;;;;;;;128.80;68.32;;;;;;;20.89;49.62;99288.97;4943620;28;20050;-89
2022/08/29 00:33:34;;;;;;;139.43;67.93;;;;;;;20.92;50.69;99290.22;4958236;28;20035;-89
2022/08/29 00:36:00;;;;;;;134.32;69.28;;;;;;;21.09;50.68;99320.94;4952328;28;20035;-89
2022/08/29 00:38:27;;;;;;;143.57;70.45;;;;;;;21.06;50.93;99321.72;4961145;28;20046;-88
2022/08/29 00:40:56;;;;;;;143.50;72.15;;;;;;;20.64;51.47;99261.78;4974901;28;20035;-89
2022/08/29 00:43:38;;;;;;;145.82;71.88;;;;;;;20.61;51.54;99253.41;4978150;28;20047;-89
2022/08/29 00:46:28;;;;;;;145.65;73.20;;;;;;;20.93;51.05;99297.38;4976489;28;20066;-88
2022/08/29 00:48:59;;;;;;;144.60;71.60;;;;;;;20.85;51.55;99286.19;4981007;28;20038;-89
2022/08/29 00:51:25;;;;;;;155.82;74.18;;;;;;;20.91;50.48;99291.41;4974701;28;20067;-88
2022/08/29 00:53:59;;;;;;;152.07;75.70;;;;;;;20.88;50.42;99295.72;4965208;28;20038;-88
2022/08/29 00:56:27;;;;;;;154.07;73.45;;;;;;;20.72;49.78;99253.50;4963243;28;20042;-89
2022/08/29 01:02:44;;;;;;;146.63;73.10;;;;;;;20.95;49.24;99275.53;4914677;29;20506;-89
2022/08/29 01:08:27;;;;;;;133.38;66.30;;;;;;;20.65;49.60;99218.13;4862460;29;20072;-91
2022/08/29 01:14:35;;;;;;;135.60;65.25;;;;;;;20.63;49.93;99215.75;4858416;29;20052;-89
2022/08/29 01:17:02;;;;;;;128.07;61.72;;;;;;;20.81;50.08;99221.44;4859202;29;20071;-90
2022/08/29 01:20:12;;;;;;;122.05;60.83;;;;;;;20.76;49.99;99234.88;4833726;29;20048;-88
2022/08/29 01:23:14;;;;;;;123.72;61.33;;;;;;;20.78;50.26;99227.78;4850659;29;20040;-90
2022/08/29 01:25:47;;;;;;;124.82;61.33;;;;;;;20.78;50.26;99230.53;4924274;29;20059;-91
2022/08/29 01:28:24;;;;;;;120.22;58.78;;;;;;;20.88;50.23;99248.50;4878502;29;20035;-88
2022/08/29 01:31:07;;;;;;;119.57;57.25;;;;;;;20.90;49.85;99237.00;4888573;29;20437;-89
2022/08/29 01:33:48;;;;;;;108.85;55.70;;;;;;;20.90;50.06;99237.81;4904998;29;20050;-93
2022/08/29 01:36:42;;;;;;;112.05;55.38;;;;;;;20.92;50.01;99234.63;4869217;29;20048;-86
2022/08/29 01:39:09;;;;;;;110.07;55.15;;;;;;;20.70;50.51;99197.56;4907934;29;20052;-95
2022/08/29 01:41:38;;;;;;;109.38;53.10;;;;;;;20.84;49.95;99217.09;4920464;28;20166;-94
2022/08/29 01:44:30;;;;;;;101.93;52.08;;;;;;;20.90;49.70;99235.03;5015887;23;20048;-90
2022/08/29 01:46:58;;;;;;;100.63;49.78;;;;;;;20.90;49.00;99217.56;4937539;29;20047;-94
2022/08/29 01:49:24;;;;;;;106.78;49.63;;;;;;;20.83;48.98;99207.19;4932289;29;20125;-92
2022/08/29 01:52:07;;;;;;;97.93;48.40;;;;;;;20.73;49.07;99189.25;4927674;23;20719;-88
2022/08/29 01:54:34;;;;;;;102.50;50.53;;;;;;;20.80;49.10;99191.28;4931476;29;20054;-89
2022/08/29 01:57:06;;;;;;;101.22;49.80;;;;;;;20.89;48.92;99205.63;4956832;29;20047;-93
2022/08/29 02:02:41;;;;;;;93.10;49.30;;;;;;;20.90;49.95;99212.78;4956197;28;20270;-92
2022/08/29 02:05:50;;;;;;;95.38;48.55;;;;;;;20.67;49.92;99181.66;4999887;28;20137;-87
2022/08/29 02:08:43;;;;;;;96.32;48.88;;;;;;;20.82;50.26;99200.00;4941777;29;20058;-87
2022/08/29 02:11:26;;;;;;;99.50;49.40;;;;;;;20.45;50.24;99155.63;4952430;28;20049;-88
2022/08/29 02:17:54;;;;;;;109.15;49.05;;;;;;;20.06;51.67;99117.19;4967480;28;20051;-88
2022/08/29 02:20:20;;;;;;;128.35;51.47;;;;;;;20.27;52.68;99163.81;4931591;29;20039;-92
2022/08/29 02:32:14;;;;;;;91.82;41.90;;;;;;;20.55;50.39;99202.97;4973373;28;20053;-88
2022/08/29 02:34:44;;;;;;;90.75;40.00;;;;;;;20.29;50.23;99136.44;4944525;28;20130;-89
2022/08/29 02:37:35;;;;;;;132.65;40.85;;;;;;;20.62;50.18;99203.03;4975894;28;20081;-91
2022/08/29 02:40:50;;;;;;;76.95;39.08;;;;;;;20.64;49.65;99184.00;4951686;29;20636;-90
2022/08/29 02:43:18;;;;;;;;;;;;;;;20.68;49.93;99180.47;4925564;29;20523;-91
2022/08/29 02:46:40;;;;;;;71.15;35.83;;;;;;;20.26;49.49;99098.34;4959178;29;19929;-88
2022/08/29 02:57:12;;;;;;;66.60;31.67;;;;;;;20.56;49.01;99109.34;4956873;29;20124;-87
2022/08/29 02:59:38;;;;;;;59.70;31.75;;;;;;;20.69;49.43;99157.84;4962768;28;20043;-91
2022/08/29 03:02:04;;;;;;;64.17;31.53;;;;;;;20.52;48.61;99123.19;4957231;29;20035;-88
2022/08/29 03:05:00;;;;;;;67.47;31.83;;;;;;;20.77;49.62;99158.72;4949046;29;20126;-88
2022/08/29 03:07:28;;;;;;;63.42;29.88;;;;;;;20.46;48.69;99104.47;4937256;29;20035;-88
2022/08/29 03:13:41;;;;;;;59.85;31.42;;;;;;;20.28;48.45;99074.59;4952524;29;20052;-89
2022/08/29 03:16:07;;;;;;;54.17;28.98;;;;;;;20.68;48.43;99134.03;4937771;29;20424;-89
2022/08/29 03:18:34;;;;;;;;;;;;;;;20.79;48.78;99165.47;4949185;28;20205;-90
2022/08/29 03:24:49;;;;;;;59.40;29.52;;;;;;;20.69;49.48;99151.50;5041508;23;20087;-90
2022/08/29 03:27:15;;;;;;;59.63;27.80;;;;;;;20.71;49.30;99149.94;4942458;29;20130;-93
2022/08/29 03:34:33;;;;;;;54.05;25.05;;;;;;;20.21;49.18;99068.97;5104855;23;20130;-93
2022/08/29 03:37:00;;;;;;;46.80;24.48;;;;;;;20.77;49.35;99173.41;4923610;29;20054;-93
2022/08/29 03:44:26;;;;;;;60.72;26.17;;;;;;;20.44;49.69;99102.09;4913931;29;20076;-94
2022/08/29 03:46:53;;;;;;;63.85;27.50;;;;;;;20.73;48.91;99128.13;4885908;29;20049;-94
2022/08/29 03:53:55;;;;;;;58.50;26.95;;;;;;;20.74;49.07;99088.06;4938669;29;20074;-94
2022/08/29 03:56:21;;;;;;;66.50;25.60;;;;;;;20.84;49.06;99095.66;5065390;23;20066;-94
2022/08/29 03:58:49;;;;;;;62.80;26.80;;;;;;;20.88;49.39;99096.47;4936851;29;20044;-94
2022/08/29 04:07:30;;;;;;;59.45;26.95;;;;;;;21.02;49.45;99094.97;5014324;23;20417;-89
2022/08/29 04:13:07;;;;;;;65.90;27.65;;;;;;;20.73;50.45;99030.09;4948427;29;20607;-89
2022/08/29 04:19:34;;;;;;;92.40;27.75;;;;;;;20.63;49.48;98996.34;4936023;29;20021;-87
2022/08/29 04:26:20;;;;;;;73.05;32.65;;;;;;;20.92;49.90;99015.13;4948256;29;20058;-92
2022/08/29 04:29:12;;;;;;;75.05;32.78;;;;;;;21.33;48.90;99086.00;4889042;29;20040;-92
2022/08/29 05:24:36;;;;;;;70.05;35.85;;;;;;;21.60;51.12;99080.16;4914441;23;20067;-88
2022/08/29 05:35:11;;;;;;;84.20;40.38;;;;;;;21.94;51.48;99099.31;5054069;23;20046;-88
2022/08/29 05:37:37;;;;;;;77.88;39.63;;;;;;;22.01;50.71;99063.13;4925374;28;20043;-91
2022/08/29 05:40:04;;;;;;;118.53;41.42;;;;;;;21.92;50.32;99029.31;4934748;29;20035;-90
2022/08/29 05:42:30;;;;;;;112.93;42.67;;;;;;;22.29;50.69;99070.75;4986574;28;20051;-93
2022/08/29 05:44:57;;;;;;;134.70;45.75;;;;;;;22.38;50.04;99064.75;4955695;28;20053;-91
2022/08/29 05:47:24;;;;;;;112.47;43.75;;;;;;;22.42;50.49;99046.88;4947491;29;20141;-91
2022/08/29 05:49:50;;;;;;;98.20;43.70;;;;;;;22.66;49.72;99063.94;4924579;29;20035;-89
2022/08/29 05:57:23;;;;;;;100.38;46.05;;;;;;;22.86;48.54;99067.09;4942702;29;20046;-90
2022/08/29 06:00:45;;;;;;;114.40;47.08;;;;;;;22.99;48.48;99065.50;4947794;29;20047;-89
2022/08/29 06:11:58;;;;;;;106.67;49.33;;;;;;;23.07;47.80;99058.69;4932645;29;20063;-88
2022/08/29 06:17:48;;;;;;;119.35;52.05;;;;;;;22.59;49.62;98983.97;4904066;29;20048;-90
2022/08/29 06:20:14;;;;;;;141.73;55.22;;;;;;;23.01;48.20;99028.84;4902175;29;20524;-88
2022/08/29 06:22:43;;;;;;;105.00;50.95;;;;;;;23.38;48.12;99064.56;4917185;29;20040;-89
2022/08/29 06:25:11;;;;;;;114.75;52.58;;;;;;;23.37;47.29;99058.16;4903056;29;20048;-91
2022/08/29 06:27:37;;;;;;;125.88;53.92;;;;;;;23.49;48.83;99073.66;4920253;29;20039;-91
2022/08/29 06:30:05;;;;;;;124.82;54.05;;;;;;;23.53;48.73;99076.44;4897753;29;20052;-88
2022/08/29 06:32:32;;;;;;;127.63;57.40;;;;;;;23.56;49.00;99068.03;4915194;29;20122;-88
2022/08/29 06:34:58;;;;;;;128.57;54.33;;;;;;;23.61;48.01;99055.69;4884525;29;20095;-87
2022/08/29 06:37:24;;;;;;;117.63;54.15;;;;;;;23.63;47.90;99059.63;4918119;29;20047;-88
2022/08/29 06:39:50;;;;;;;134.38;56.92;;;;;;;23.67;46.90;99054.03;4916147;29;20044;-89
2022/08/29 06:42:23;;;;;;;121.43;54.17;;;;;;;23.59;47.40;99042.13;4915528;29;20633;-88
2022/08/29 06:44:49;;;;;;;121.00;54.25;;;;;;;23.76;47.99;99065.56;4919792;29;20044;-85
2022/08/29 06:47:20;;;;;;;113.10;53.40;;;;;;;23.60;47.18;99040.13;4923928;29;20425;-89
2022/08/29 06:49:46;;;;;;;112.70;54.20;;;;;;;23.71;46.66;99054.03;4938113;29;20064;-85
2022/08/29 06:52:12;;;;;;;118.97;54.80;;;;;;;23.57;47.39;99040.94;4904633;29;20039;-86
2022/08/29 06:54:38;;;;;;;109.60;54.38;;;;;;;23.77;47.37;99058.78;4922822;29;20040;-88
2022/08/29 06:57:05;;;;;;;200.60;58.50;;;;;;;23.86;48.39;99052.75;4926599;29;20557;-88
2022/08/29 07:03:23;;;;;;;114.10;53.60;;;;;;;24.24;45.86;99053.69;4932249;29;20094;-88
2022/08/29 07:17:11;;;;;;;110.18;48.40;;;;;;;24.04;44.42;98971.63;4940418;29;20699;-85
2022/08/29 07:19:37;;;;;;;89.88;45.80;;;;;;;24.30;44.52;98998.13;4947327;29;20569;-85
2022/08/29 07:22:03;;;;;;;104.70;46.47;;;;;;;24.58;43.83;99045.41;4936617;29;20549;-86
2022/08/29 07:24:29;;;;;;;101.65;44.92;;;;;;;24.72;43.87;99040.88;4939179;29;20054;-90
2022/08/29 07:26:55;;;;;;;118.63;38.47;;;;;;;24.66;42.62;99028.56;4934711;29;20039;-87
2022/08/29 07:29:22;;;;;;;79.80;32.85;;;;;;;24.77;40.97;99034.84;4952032;28;20593;-84
2022/08/29 07:31:49;;;;;;;86.70;30.98;;;;;;;24.95;40.28;99063.38;4949953;29;20065;-86
2022/08/29 07:34:15;;;;;;;162.75;32.92;;;;;;;24.73;40.01;99018.09;4927585;29;20055;-92
2022/08/29 07:36:42;;;;;;;82.60;27.30;;;;;;;24.74;40.62;99005.72;4951311;29;20569;-86
2022/08/29 07:39:12;;;;;;;91.05;28.40;;;;;;;25.11;40.54;99056.44;4950519;28;20046;-85
2022/08/29 07:41:40;;;;;;;93.72;27.38;;;;;;;25.14;41.60;99064.81;4963687;28;20042;-86
2022/08/29 07:44:07;;;;;;;114.85;27.55;;;;;;;25.20;41.28;99056.72;4943617;29;20062;-92
2022/08/29 07:46:37;;;;;;;91.40;25.60;;;;;;;25.11;40.74;99042.44;4964506;28;20140;-88
2022/08/29 07:49:06;;;;;;;80.72;20.30;;;;;;;25.09;38.96;99026.84;4964446;28;20043;-88
2022/08/29 07:51:32;;;;;;;48.45;17.10;;;;;;;25.26;39.64;99053.06;4943119;29;20172;-86
2022/08/29 07:54:15;;;;;;;69.80;16.73;;;;;;;25.15;40.32;99032.03;4963664;29;20119;-89
2022/08/29 07:57:35;;;;;;;68.03;15.73;;;;;;;25.35;39.19;99057.38;4961173;29;20043;-86
2022/08/29 08:03:07;;;;;;;;;;;;;;;25.50;39.40;99053.19;4965269;29;20105;-88
2022/08/29 08:05:37;;;;;;;40.83;13.45;;;;;;;25.38;38.78;99020.94;4954561;28;19954;-92
2022/08/29 08:08:10;;;;;;;38.00;13.20;;;;;;;25.63;40.03;99053.38;4949966;29;20051;-88
2022/08/29 08:10:38;;;;;;;52.47;14.27;;;;;;;25.66;40.50;99046.94;4964641;28;20027;-91
2022/08/29 08:13:19;;;;;;;54.60;14.70;;;;;;;25.50;39.13;99014.78;4959195;28;20098;-87
2022/08/29 08:15:45;;;;;;;49.97;12.88;;;;;;;25.43;38.51;98988.88;4969920;28;20047;-92
2022/08/29 08:18:15;;;;;;;51.20;13.45;;;;;;;25.63;38.70;99012.19;4949291;29;20071;-89
2022/08/29 08:20:47;;;;;;;40.92;10.77;;;;;;;25.82;38.75;99019.13;4955126;29;20047;-92
2022/08/29 08:23:14;;;;;;;33.33;9.48;;;;;;;26.05;38.69;99049.19;4911721;29;20074;-89
2022/08/29 08:25:41;;;;;;;40.05;9.30;;;;;;;25.79;38.75;98991.94;4932640;29;20138;-94
2022/08/29 08:28:08;;;;;;;64.63;11.77;;;;;;;26.29;39.32;99047.22;4942065;29;20043;-94
2022/08/29 08:30:34;;;;;;;47.15;13.52;;;;;;;26.12;38.67;99031.47;4950772;29;20039;-92
2022/08/29 08:33:01;;;;;;;53.78;9.77;;;;;;;26.28;38.42;99058.84;4957120;28;20107;-91
2022/08/29 08:35:56;;;;;;;43.25;10.38;;;;;;;26.24;38.68;99053.28;4932366;29;20409;-89
2022/08/29 08:38:31;;;;;;;60.35;9.52;;;;;;;26.28;39.79;99061.63;4925924;29;20067;-90
2022/08/29 08:41:43;;;;;;;41.43;8.50;;;;;;;26.35;39.83;99053.88;4940405;29;20039;-89
2022/08/29 08:44:50;;;;;;;41.38;10.23;;;;;;;26.35;40.34;99050.31;4936180;29;20043;-94
2022/08/29 08:47:50;;;;;;;62.33;9.77;;;;;;;26.36;39.63;99058.28;4926918;29;20051;-90
2022/08/29 08:50:37;;;;;;;86.93;11.43;;;;;;;26.39;39.64;99063.06;4926734;29;20031;-93
2022/08/29 08:53:57;;;;;;;157.52;11.40;;;;;;;26.28;39.93;99048.41;4941500;28;20047;-90
2022/08/29 08:57:07;;;;;;;39.67;8.18;;;;;;;26.12;40.89;99029.44;4932113;29;20052;-93
2022/08/29 08:59:59;;;;;;;36.08;7.90;;;;;;;26.02;40.57;99027.63;4878415;23;20041;31
2022/08/29 09:06:52;;;;;;;51.50;8.77;;;;;;;26.00;40.64;99075.69;4956838;29;20528;-93
2022/08/29 09:09:40;;;;;;;54.22;8.55;;;;;;;25.99;40.83;99076.91;4944901;29;20075;-90
2022/08/29 09:12:28;;;;;;;41.53;7.32;;;;;;;25.92;40.69;99068.56;4962650;28;20036;-94
2022/08/29 09:15:46;;;;;;;56.08;8.00;;;;;;;25.95;40.79;99078.16;4939328;29;20043;-93
2022/08/29 09:18:43;;;;;;;43.13;9.48;;;;;;;26.06;41.53;99080.78;4913360;29;20056;-92
2022/08/29 09:21:25;;;;;;;61.30;7.25;;;;;;;25.77;41.03;99025.19;4925999;23;20066;-92
2022/08/29 09:23:58;;;;;;;54.38;9.18;;;;;;;26.12;40.85;99042.66;4946901;28;20583;-89
2022/08/29 09:26:49;;;;;;;58.92;7.53;;;;;;;26.31;40.19;99036.34;4956268;28;20528;-89
2022/08/29 09:29:19;;;;;;;49.13;9.40;;;;;;;26.26;40.34;99000.44;4973215;28;20115;-91
2022/08/29 09:32:14;;;;;;;70.35;10.13;;;;;;;26.92;39.51;99072.53;4958172;28;20047;-92
2022/08/29 09:39:18;;;;;;;36.20;8.38;;;;;;;27.44;39.65;99050.69;4958913;29;20055;-90
2022/08/29 09:41:57;;;;;;;54.85;8.50;;;;;;;27.46;38.59;99051.84;4950258;29;20135;-91
2022/08/29 09:44:32;;;;;;;45.88;7.50;;;;;;;27.59;38.04;99057.56;4968190;28;20599;-90
2022/08/29 09:47:26;;;;;;;42.65;9.73;;;;;;;27.53;37.88;99037.63;4952617;29;20055;-90
2022/08/29 09:50:25;;;;;;;33.95;7.82;;;;;;;27.71;36.96;99059.69;4948493;29;20545;-89
2022/08/29 09:52:56;;;;;;;33.47;6.93;;;;;;;27.67;37.75;99041.34;4898786;29;20406;-90
2022/08/29 09:55:34;;;;;;;49.55;7.53;;;;;;;27.57;36.39;99023.50;4920377;29;20078;-91
2022/08/29 09:58:23;;;;;;;44.47;7.07;;;;;;;27.76;36.20;99056.41;4984922;23;20050;-88
2022/08/29 10:01:01;;;;;;;39.78;7.45;;;;;;;27.65;36.29;99061.47;4960706;28;20035;-88
2022/08/29 10:04:03;;;;;;;61.03;7.45;;;;;;;27.75;36.39;99066.03;4977285;28;20074;-89
2022/08/29 10:07:20;;;;;;;74.32;8.93;;;;;;;27.79;36.35;99066.78;4988707;28;20039;-91
2022/08/29 10:24:58;;;;;;;50.65;7.53;;;;;;;27.06;37.79;99068.66;4960521;29;20134;-90
2022/08/29 10:28:12;;;;;;;42.00;8.85;;;;;;;26.77;37.39;99000.31;4949744;28;20053;-89
2022/08/29 10:31:34;;;;;;;35.08;7.00;;;;;;;27.35;37.26;99049.25;4907331;28;20048;-94
2022/08/29 10:34:37;;;;;;;40.28;7.45;;;;;;;27.72;37.51;99064.09;4925291;28;20066;-89
2022/08/29 10:37:25;;;;;;;35.53;7.57;;;;;;;27.80;36.54;99073.97;4925253;28;20638;-91
2022/08/29 10:43:24;;;;;;;29.80;8.00;;;;;;;27.80;37.74;99068.34;4987253;23;20145;-91
2022/08/29 10:45:59;;;;;;;53.35;8.00;;;;;;;27.86;37.37;99072.22;4961121;28;20043;-89
2022/08/29 10:51:27;;;;;;;34.63;7.22;;;;;;;27.71;37.95;99040.03;5004217;23;20125;-95
2022/08/29 10:54:33;;;;;;;45.75;7.95;;;;;;;27.93;38.40;99071.28;4943927;28;20106;-95
2022/08/29 10:57:03;;;;;;;47.53;7.35;;;;;;;27.69;37.92;99025.66;4975906;28;20035;-94
2022/08/29 11:03:34;;;;;;;38.83;6.63;;;;;;;28.05;38.07;99083.84;4981029;28;20055;-96
2022/08/29 11:06:39;;;;;;;34.65;7.30;;;;;;;28.20;38.70;99090.69;4975575;28;20046;-94
2022/08/29 11:13:42;;;;;;;35.88;7.47;;;;;;;27.73;37.74;99017.94;4989134;28;20031;-95
2022/08/29 11:16:30;;;;;;;80.72;8.15;;;;;;;28.09;37.78;99102.19;4978223;28;20055;-92
2022/08/29 11:19:40;;;;;;;34.08;7.07;;;;;;;27.98;38.54;99073.56;4986132;28;20055;-92
2022/08/29 11:22:41;;;;;;;70.40;10.70;;;;;;;27.92;38.80;99109.03;4963526;29;20059;-89
2022/08/29 11:25:12;;;;;;;32.05;7.82;;;;;;;27.45;39.25;99095.19;4954904;29;20045;-92
2022/08/29 11:28:29;;;;;;;47.08;7.95;;;;;;;27.45;39.19;99114.00;4936227;29;20079;-91
2022/08/29 11:31:25;;;;;;;97.00;9.40;;;;;;;27.37;39.97;99114.16;4957943;29;20105;-90
2022/08/29 11:34:13;;;;;;;;;;;;;;;27.41;40.12;99114.88;4931146;29;20075;-96
2022/08/29 11:37:15;;;;;;;37.47;9.07;;;;;;;27.71;39.52;99121.47;4948216;29;19958;-95
2022/08/29 11:40:08;;;;;;;45.13;7.95;;;;;;;27.75;39.05;99118.59;4956929;29;20024;-95
2022/08/29 11:42:45;;;;;;;33.40;7.93;;;;;;;27.79;39.82;99117.34;4970411;28;20046;-87
2022/08/29 11:45:27;;;;;;;26.08;8.40;;;;;;;27.74;39.82;99100.94;4922976;29;20047;-89
2022/08/29 11:48:35;;;;;;;31.90;7.20;;;;;;;27.60;38.37;99102.06;4944156;29;20619;-87
2022/08/29 11:51:37;;;;;;;30.98;7.75;;;;;;;27.49;38.71;99076.25;4923746;29;20050;-90
2022/08/29 11:54:34;;;;;;;55.95;8.98;;;;;;;27.83;38.48;99134.91;4954855;29;20100;-88
2022/08/29 11:57:01;;;;;;;62.78;8.45;;;;;;;27.72;37.96;99139.94;4958462;28;20035;-88
2022/08/29 12:03:01;;;;;;;43.05;8.38;;;;;;;27.18;38.96;99134.59;4951468;29;20043;-95
2022/08/29 12:05:30;;;;;;;42.90;8.98;;;;;;;27.19;39.45;99150.22;4931738;29;20047;-90
2022/08/29 12:11:09;;;;;;;44.30;9.85;;;;;;;27.07;40.08;99111.53;4902839;29;20054;-96
2022/08/29 12:13:58;;;;;;;52.72;11.25;;;;;;;27.47;40.88;99137.63;4944741;29;20047;-95
2022/08/29 12:16:48;;;;;;;32.45;7.82;;;;;;;27.58;40.30;99140.22;4919814;29;20060;-91
2022/08/29 12:19:51;;;;;;;35.08;6.68;;;;;;;27.31;39.75;99129.91;4912419;29;20040;-95
2022/08/29 12:22:48;;;;;;;22.35;6.45;;;;;;;27.32;39.74;99145.56;4889126;29;20175;-92
2022/08/29 12:25:45;;;;;;;34.38;7.40;;;;;;;27.23;40.03;99125.69;4905813;29;20147;-90
2022/08/29 12:28:19;;;;;;;;;;;;;;;27.27;39.89;99134.81;4883063;29;20048;-88
2022/08/29 12:31:00;;;;;;;41.85;7.65;;;;;;;27.28;40.38;99146.84;4905594;29;19919;-94
2022/08/29 12:34:30;;;;;;;37.65;6.75;;;;;;;27.21;39.91;99144.97;4901946;29;20060;-93
2022/08/29 12:37:38;;;;;;;29.63;6.45;;;;;;;27.24;40.71;99146.13;4928578;23;20071;-90
2022/08/29 12:40:44;;;;;;;41.15;7.90;;;;;;;27.39;40.76;99139.81;4946469;29;20049;-89
2022/08/29 12:43:41;;;;;;;44.78;7.35;;;;;;;27.28;40.62;99130.78;4924113;29;20074;-88
2022/08/29 12:46:26;;;;;;;26.55;6.05;;;;;;;26.94;40.63;99120.56;4950694;29;20044;-91
2022/08/29 12:49:06;;;;;;;32.78;6.53;;;;;;;27.11;40.43;99137.50;4964483;23;20055;-92
2022/08/29 12:51:54;;;;;;;35.45;6.55;;;;;;;26.80;41.24;99104.00;4926717;29;20074;-96
2022/08/29 12:54:36;;;;;;;42.85;6.97;;;;;;;26.94;40.94;99117.75;4939479;29;20091;-95
2022/08/29 12:57:25;;;;;;;26.75;6.18;;;;;;;27.26;40.09;99152.09;4931596;29;20045;-89
2022/08/29 13:00:04;;;;;;;43.17;7.07;;;;;;;27.14;40.60;99100.19;4938649;23;20052;-88
2022/08/29 13:02:37;;;;;;;33.05;7.30;;;;;;;27.34;40.29;99109.41;4929317;29;20054;-90
2022/08/29 13:05:33;;;;;;;27.77;6.60;;;;;;;27.37;40.59;99144.25;4958267;28;20043;-90
2022/08/29 13:08:09;;;;;;;36.90;6.78;;;;;;;26.95;41.25;99107.34;4939620;29;20549;-89
2022/08/29 13:11:10;;;;;;;29.48;6.82;;;;;;;26.74;42.18;99091.69;4946440;29;20583;-93
2022/08/29 13:13:36;;;;;;;37.17;7.32;;;;;;;26.63;42.64;99147.97;4931285;29;20042;-93
2022/08/29 13:16:07;;;;;;;41.72;8.20;;;;;;;26.22;43.25;99118.19;4938624;29;20497;-96
2022/08/29 13:18:34;;;;;;;23.88;5.75;;;;;;;26.29;43.89;99136.88;4949587;28;20048;-90
2022/08/29 13:21:27;;;;;;;27.40;6.20;;;;;;;26.24;43.97;99142.97;4943825;28;20512;-89
2022/08/29 13:24:10;;;;;;;25.08;6.45;;;;;;;26.15;43.59;99137.09;4959347;28;20052;-90
2022/08/29 13:27:08;;;;;;;41.88;7.45;;;;;;;26.40;43.69;99140.31;4936052;29;20039;-95
2022/08/29 13:29:38;;;;;;;23.50;6.28;;;;;;;26.40;43.87;99151.50;4945446;29;20075;-94
2022/08/29 13:32:35;;;;;;;32.63;6.65;;;;;;;25.93;44.30;99123.41;4947903;29;20043;-89
2022/08/29 13:36:00;;;;;;;28.60;6.50;;;;;;;25.85;45.13;99141.50;4950907;29;20407;-92
2022/08/29 13:38:28;;;;;;;28.83;7.38;;;;;;;25.70;45.42;99098.09;4926709;29;20070;-94
2022/08/29 13:45:07;;;;;;;23.27;6.40;;;;;;;26.31;45.17;99137.22;4936187;29;20115;-92
2022/08/29 13:48:23;;;;;;;34.83;6.57;;;;;;;26.35;44.08;99135.16;4945053;23;20058;-89
2022/08/29 13:51:54;;;;;;;33.53;8.68;;;;;;;26.30;44.39;99134.88;4932791;28;20504;-94
2022/08/29 13:55:11;;;;;;;31.75;8.45;;;;;;;26.38;44.04;99125.91;4906568;29;20134;-88
2022/08/29 13:57:59;;;;;;;36.42;5.88;;;;;;;26.32;43.86;99126.81;4967539;28;20067;-92
2022/08/29 14:00:40;;;;;;;19.63;5.22;;;;;;;25.95;44.17;99061.34;4903508;29;20047;-90
2022/08/29 14:03:08;;;;;;;25.88;5.60;;;;;;;26.14;43.13;99101.88;4917222;29;20454;-89
2022/08/29 14:10:19;;;;;;;28.63;6.00;;;;;;;26.39;43.56;99123.91;5042492;23;20144;-93
2022/08/29 14:13:31;;;;;;;21.85;6.28;;;;;;;26.32;44.02;99121.22;4929498;23;20055;-95
2022/08/29 14:16:01;;;;;;;20.20;5.50;;;;;;;26.41;44.33;99119.47;4947542;23;20107;31
2022/08/29 14:22:46;;;;;;;21.00;5.40;;;;;;;26.35;44.35;99111.94;4971636;28;20039;-96
2022/08/29 14:25:39;;;;;;;16.25;5.00;;;;;;;26.21;44.29;99113.75;4992516;28;20089;-95
2022/08/29 14:43:13;;;;;;;22.02;5.45;;;;;;;25.60;44.75;99031.84;5316878;23;20070;-93
2022/08/29 14:45:52;;;;;;;24.27;5.80;;;;;;;26.00;45.04;99095.28;4921986;28;20505;-95
2022/08/29 14:48:43;;;;;;;26.15;5.65;;;;;;;26.08;45.51;99104.38;5003299;23;20063;-91
2022/08/29 14:59:14;;;;;;;25.23;5.40;;;;;;;25.92;45.74;99104.19;4967233;23;21704;-90
2022/08/29 15:09:55;;;;;;;37.38;6.90;;;;;;;25.51;46.22;99044.34;4957624;23;20070;-96
2022/08/29 15:16:28;;;;;;;22.23;7.00;;;;;;;25.72;46.30;99090.03;5411547;23;20038;-94
2022/08/29 15:22:47;;;;;;;31.13;7.05;;;;;;;25.01;46.92;99005.78;5058718;23;20085;-96
2022/08/29 15:25:40;;;;;;;43.40;6.60;;;;;;;25.39;47.48;99094.47;5112775;23;20040;-94
2022/08/29 15:29:09;;;;;;;25.83;6.40;;;;;;;25.37;47.84;99100.50;4952118;23;20516;-95
2022/08/29 15:31:42;;;;;;;23.58;6.13;;;;;;;24.74;48.07;99039.25;5046747;23;20062;-96
2022/08/29 18:29:31;;;;;;;33.97;13.23;;;;;;;20.78;67.87;99057.50;4911921;29;20032;-94
2022/08/29 18:32:47;;;;;;;41.33;14.18;;;;;;;20.75;69.22;99059.09;4871316;29;20151;-94
2022/08/29 18:35:35;;;;;;;42.22;15.77;;;;;;;20.42;69.94;99004.50;4876196;29;20040;-95
2022/08/29 18:38:15;;;;;;;40.08;14.88;;;;;;;20.75;68.99;99058.28;4833236;29;20732;-91
2022/08/29 18:41:37;;;;;;;41.25;14.40;;;;;;;20.69;70.27;99051.50;4850034;29;20117;-91
2022/08/29 18:44:13;;;;;;;37.88;14.82;;;;;;;20.35;70.63;99021.91;4850514;29;20140;-92
2022/08/29 18:46:43;;;;;;;52.42;18.67;;;;;;;20.18;70.80;98986.47;4842781;29;20093;-95
2022/08/29 18:53:50;;;;;;;49.90;16.13;;;;;;;20.56;69.34;99037.94;4858275;29;20046;-91
2022/08/29 18:56:59;;;;;;;;;;;;;;;20.60;68.11;99044.31;4834792;29;20058;-91
2022/08/29 18:59:28;;;;;;;35.63;12.73;;;;;;;20.37;68.82;99014.00;4817719;29;19924;-91
2022/08/29 19:02:14;;;;;;;36.47;11.45;;;;;;;20.49;68.26;99037.84;4836784;29;20070;-91
2022/08/29 19:04:42;;;;;;;43.95;11.65;;;;;;;19.89;68.45;98941.88;4852202;29;20073;-94
2022/08/29 19:07:16;;;;;;;40.95;10.77;;;;;;;20.27;69.51;98986.94;4849199;29;20483;-89
2022/08/29 19:09:46;;;;;;;28.42;10.05;;;;;;;19.86;68.57;98937.09;4848299;29;20157;-90
2022/08/29 19:12:17;;;;;;;30.60;11.27;;;;;;;20.22;69.00;98983.72;4840055;29;20057;-90
2022/08/29 19:14:45;;;;;;;28.65;10.07;;;;;;;20.14;68.20;98989.22;4819294;29;20169;-94
2022/08/29 19:17:17;;;;;;;37.70;11.95;;;;;;;19.99;69.87;98942.34;4828675;29;20050;-93
2022/08/29 19:23:57;;;;;;;51.95;15.07;;;;;;;20.42;70.40;99033.03;4845879;29;20118;-91
2022/08/29 19:26:29;;;;;;;58.30;18.85;;;;;;;20.08;70.26;98981.66;4831519;29;20046;-92
2022/08/29 19:28:58;;;;;;;59.67;14.85;;;;;;;20.27;70.21;99022.25;4800934;29;20149;-91
2022/08/29 19:31:30;;;;;;;104.55;16.33;;;;;;;20.01;70.68;98985.16;4891976;29;20040;-91
2022/08/29 19:34:02;;;;;;;104.55;15.85;;;;;;;19.81;70.70;98976.28;4879561;29;20052;-91
2022/08/29 19:37:20;;;;;;;56.20;14.20;;;;;;;20.12;71.54;99037.97;4904015;29;20040;-93
2022/08/29 19:39:49;;;;;;;48.55;14.73;;;;;;;19.61;70.28;98977.66;4867557;29;20045;-93
2022/08/29 19:42:18;;;;;;;51.88;15.05;;;;;;;19.73;70.89;99007.91;4867208;29;20033;-90
2022/08/29 19:44:46;;;;;;;40.55;13.65;;;;;;;19.70;71.17;98990.06;4877207;29;20045;-92
2022/08/29 19:47:18;;;;;;;40.47;14.48;;;;;;;19.94;71.60;99024.75;4896325;29;20045;-91
2022/08/29 19:50:11;;;;;;;47.92;14.10;;;;;;;19.93;71.17;99023.16;4876175;29;20032;-91
2022/08/29 19:52:57;;;;;;;38.67;12.77;;;;;;;19.24;70.90;98920.28;4884610;29;20091;-91